createdAt,value
2018-01-10T00:00:20.904Z,0.00
2018-01-10T00:01:52.730Z,0.00
2018-01-10T00:03:24.542Z,0.00
2018-01-10T00:04:56.355Z,0.00
2018-01-10T00:06:28.172Z,0.00
2018-01-10T00:07:59.988Z,0.00
2018-01-10T00:09:31.806Z,0.00
2018-01-10T00:11:03.627Z,0.00
2018-01-10T00:12:35.462Z,0.00
2018-01-10T00:14:07.513Z,0.00
2018-01-10T00:15:39.072Z,0.00
2018-01-10T00:17:10.915Z,0.00
2018-01-10T00:18:42.711Z,0.00
2018-01-10T00:20:14.528Z,0.00
2018-01-10T00:21:46.348Z,0.00
2018-01-10T00:23:18.157Z,0.00
2018-01-10T00:24:49.974Z,0.00
2018-01-10T00:26:21.808Z,0.00
2018-01-10T00:27:53.607Z,0.00
2018-01-10T00:29:25.466Z,0.00
2018-01-10T00:30:57.239Z,0.00
2018-01-10T00:32:29.084Z,0.00
2018-01-10T00:34:00.956Z,0.00
2018-01-10T00:35:32.703Z,0.00
2018-01-10T00:37:04.504Z,0.00
2018-01-10T00:38:36.321Z,0.00
2018-01-10T00:40:08.140Z,0.00
2018-01-10T00:41:39.973Z,0.00
2018-01-10T00:43:11.828Z,0.00
2018-01-10T00:44:43.910Z,0.00
2018-01-10T00:46:15.402Z,0.00
2018-01-10T00:47:47.228Z,0.00
2018-01-10T00:49:19.033Z,0.00
2018-01-10T00:50:50.849Z,0.00
2018-01-10T00:52:22.666Z,0.00
2018-01-10T00:53:54.483Z,0.00
2018-01-10T00:55:26.298Z,0.00
2018-01-10T00:56:58.115Z,0.00
2018-01-10T00:58:29.932Z,0.00
2018-01-10T01:00:01.748Z,0.00
2018-01-10T01:01:33.568Z,0.00
2018-01-10T01:03:05.381Z,0.00
2018-01-10T01:04:37.203Z,0.00
2018-01-10T01:06:09.015Z,0.00
2018-01-10T01:07:40.831Z,0.00
2018-01-10T01:09:12.647Z,0.00
2018-01-10T01:10:44.465Z,0.00
2018-01-10T01:12:16.282Z,0.00
2018-01-10T01:13:48.128Z,0.00
2018-01-10T01:15:19.915Z,0.00
2018-01-10T01:16:51.733Z,0.00
2018-01-10T01:18:23.549Z,0.00
2018-01-10T01:19:55.366Z,0.00
2018-01-10T01:21:27.183Z,0.00
2018-01-10T01:22:58.998Z,0.00
2018-01-10T01:24:30.817Z,0.00
2018-01-10T01:26:02.633Z,0.00
2018-01-10T01:27:34.449Z,0.00
2018-01-10T01:29:06.265Z,0.00
2018-01-10T01:30:38.082Z,0.00
2018-01-10T01:32:09.899Z,0.00
2018-01-10T01:33:41.715Z,0.00
2018-01-10T01:35:13.539Z,0.00
2018-01-10T01:36:45.348Z,0.00
2018-01-10T01:38:17.167Z,0.00
2018-01-10T01:39:48.981Z,0.00
2018-01-10T01:41:20.797Z,0.00
2018-01-10T01:42:52.613Z,0.00
2018-01-10T01:44:24.436Z,0.00
2018-01-10T01:45:56.498Z,0.00
2018-01-10T01:47:28.065Z,0.00
2018-01-10T01:48:59.881Z,0.00
2018-01-10T01:50:31.696Z,0.00
2018-01-10T01:52:03.513Z,0.00
2018-01-10T01:53:35.330Z,0.00
2018-01-10T01:55:07.147Z,0.00
2018-01-10T01:56:38.963Z,0.00
2018-01-10T01:58:10.779Z,0.00
2018-01-10T01:59:42.599Z,0.00
2018-01-10T02:01:14.412Z,0.00
2018-01-10T02:02:46.233Z,0.00
2018-01-10T02:04:18.045Z,0.00
2018-01-10T02:05:49.861Z,0.00
2018-01-10T02:07:21.678Z,0.00
2018-01-10T02:08:53.495Z,0.00
2018-01-10T02:10:25.312Z,0.00
2018-01-10T02:11:57.129Z,0.00
2018-01-10T02:13:28.948Z,0.00
2018-01-10T02:15:00.762Z,0.00
2018-01-10T02:16:32.833Z,0.00
2018-01-10T02:18:04.395Z,0.00
2018-01-10T02:19:36.211Z,0.00
2018-01-10T02:21:08.028Z,0.00
2018-01-10T02:22:39.845Z,0.00
2018-01-10T02:24:11.662Z,0.00
2018-01-10T02:25:43.478Z,0.00
2018-01-10T02:27:15.295Z,0.00
2018-01-10T02:28:47.112Z,0.00
2018-01-10T02:30:18.928Z,0.00
2018-01-10T02:31:50.745Z,0.00
2018-01-10T02:33:22.560Z,0.00
2018-01-10T02:34:54.378Z,0.00
2018-01-10T02:36:26.194Z,0.00
2018-01-10T02:37:58.011Z,0.00
2018-01-10T02:39:29.826Z,0.00
2018-01-10T02:41:01.644Z,0.00
2018-01-10T02:42:33.459Z,0.00
2018-01-10T02:44:05.278Z,0.00
2018-01-10T02:45:37.094Z,0.00
2018-01-10T02:47:09.160Z,0.00
2018-01-10T02:48:40.729Z,0.00
2018-01-10T02:50:12.543Z,0.00
2018-01-10T02:51:44.359Z,0.00
2018-01-10T02:53:16.175Z,0.00
2018-01-10T02:54:47.992Z,0.00
2018-01-10T02:56:19.812Z,0.00
2018-01-10T02:57:51.625Z,0.00
2018-01-10T02:59:23.440Z,0.00
2018-01-10T03:00:55.257Z,0.00
2018-01-10T03:02:27.077Z,0.00
2018-01-10T03:03:58.890Z,0.00
2018-01-10T03:05:30.707Z,0.00
2018-01-10T03:07:02.522Z,0.00
2018-01-10T03:08:34.343Z,0.00
2018-01-10T03:10:06.154Z,0.00
2018-01-10T03:11:37.972Z,0.00
2018-01-10T03:13:09.788Z,0.00
2018-01-10T03:14:41.605Z,0.00
2018-01-10T03:16:13.421Z,0.00
2018-01-10T03:17:45.688Z,0.00
2018-01-10T03:19:17.052Z,0.00
2018-01-10T03:20:48.869Z,0.00
2018-01-10T03:22:20.687Z,0.00
2018-01-10T03:23:52.502Z,0.00
2018-01-10T03:25:24.320Z,0.00
2018-01-10T03:26:56.134Z,0.00
2018-01-10T03:28:27.952Z,0.00
2018-01-10T03:29:59.768Z,0.00
2018-01-10T03:31:31.585Z,0.00
2018-01-10T03:33:03.401Z,0.00
2018-01-10T03:34:35.217Z,0.00
2018-01-10T03:36:07.033Z,0.00
2018-01-10T03:37:38.850Z,0.00
2018-01-10T03:39:10.707Z,0.00
2018-01-10T03:40:42.482Z,0.00
2018-01-10T03:42:14.299Z,0.00
2018-01-10T03:43:46.116Z,0.00
2018-01-10T03:45:17.931Z,0.00
2018-01-10T03:46:49.748Z,0.00
2018-01-10T03:48:21.564Z,0.00
2018-01-10T03:49:53.379Z,0.00
2018-01-10T03:51:25.197Z,0.00
2018-01-10T03:52:57.012Z,0.00
2018-01-10T03:54:28.828Z,0.00
2018-01-10T03:56:00.646Z,0.00
2018-01-10T03:57:32.461Z,0.00
2018-01-10T03:59:04.282Z,0.00
2018-01-10T04:00:36.094Z,0.00
2018-01-10T04:02:07.910Z,0.00
2018-01-10T04:03:39.727Z,0.00
2018-01-10T04:05:11.543Z,0.00
2018-01-10T04:06:43.359Z,0.00
2018-01-10T04:08:15.175Z,0.00
2018-01-10T04:09:46.991Z,0.00
2018-01-10T04:11:18.806Z,0.00
2018-01-10T04:12:50.623Z,0.00
2018-01-10T04:14:22.437Z,0.00
2018-01-10T04:15:54.254Z,0.00
2018-01-10T04:17:26.073Z,0.00
2018-01-10T04:18:57.886Z,0.00
2018-01-10T04:20:29.700Z,0.00
2018-01-10T04:22:01.520Z,0.00
2018-01-10T04:23:33.330Z,0.00
2018-01-10T04:25:05.147Z,0.00
2018-01-10T04:26:36.963Z,0.00
2018-01-10T04:28:08.779Z,0.00
2018-01-10T04:29:40.596Z,0.00
2018-01-10T04:31:12.411Z,0.00
2018-01-10T04:32:44.226Z,0.00
2018-01-10T04:34:16.041Z,0.00
2018-01-10T04:35:47.857Z,0.00
2018-01-10T04:37:19.672Z,0.00
2018-01-10T04:38:51.488Z,0.00
2018-01-10T04:40:23.303Z,0.00
2018-01-10T04:41:55.120Z,0.00
2018-01-10T04:43:26.936Z,0.00
2018-01-10T04:44:58.752Z,0.00
2018-01-10T04:46:30.566Z,0.00
2018-01-10T04:48:02.389Z,0.00
2018-01-10T04:49:34.198Z,0.00
2018-01-10T04:51:06.018Z,0.00
2018-01-10T04:52:37.834Z,0.00
2018-01-10T04:54:09.650Z,0.00
2018-01-10T04:55:41.467Z,0.00
2018-01-10T04:57:13.284Z,0.00
2018-01-10T04:58:45.099Z,0.00
2018-01-10T05:00:16.915Z,0.00
2018-01-10T05:01:48.733Z,0.00
2018-01-10T05:03:20.548Z,0.00
2018-01-10T05:04:52.369Z,0.00
2018-01-10T05:06:24.185Z,0.00
2018-01-10T05:07:56.002Z,0.00
2018-01-10T05:09:27.819Z,0.00
2018-01-10T05:10:59.634Z,0.00
2018-01-10T05:12:31.489Z,0.00
2018-01-10T05:14:03.266Z,0.00
2018-01-10T05:15:35.084Z,0.00
2018-01-10T05:17:06.899Z,0.00
2018-01-10T05:18:38.716Z,0.00
2018-01-10T05:20:10.533Z,0.00
2018-01-10T05:21:42.350Z,0.00
2018-01-10T05:23:14.165Z,0.00
2018-01-10T05:24:45.982Z,0.00
2018-01-10T05:26:17.798Z,0.00
2018-01-10T05:27:49.615Z,0.00
2018-01-10T05:29:21.430Z,0.00
2018-01-10T05:30:53.247Z,0.00
2018-01-10T05:32:25.064Z,0.00
2018-01-10T05:33:56.879Z,0.00
2018-01-10T05:35:28.697Z,0.00
2018-01-10T05:37:00.518Z,0.00
2018-01-10T05:38:32.329Z,0.00
2018-01-10T05:40:04.146Z,0.00
2018-01-10T05:41:35.962Z,0.00
2018-01-10T05:43:07.775Z,0.00
2018-01-10T05:44:39.592Z,0.00
2018-01-10T05:46:11.408Z,0.00
2018-01-10T05:47:43.224Z,0.00
2018-01-10T05:49:15.042Z,0.00
2018-01-10T05:50:46.862Z,0.00
2018-01-10T05:52:18.673Z,0.00
2018-01-10T05:53:50.490Z,0.00
2018-01-10T05:55:22.306Z,0.00
2018-01-10T05:56:54.122Z,0.00
2018-01-10T05:58:25.940Z,0.00
2018-01-10T05:59:57.756Z,0.00
2018-01-10T06:01:29.572Z,0.00
2018-01-10T06:03:01.389Z,0.00
2018-01-10T06:04:33.204Z,0.00
2018-01-10T06:06:05.026Z,0.00
2018-01-10T06:07:36.836Z,0.00
2018-01-10T06:09:08.653Z,0.00
2018-01-10T06:10:40.470Z,0.00
2018-01-10T06:12:12.287Z,0.00
2018-01-10T06:13:44.103Z,0.00
2018-01-10T06:15:15.920Z,0.00
2018-01-10T06:16:47.740Z,0.00
2018-01-10T06:18:19.553Z,0.00
2018-01-10T06:19:51.370Z,0.00
2018-01-10T06:21:23.186Z,0.00
2018-01-10T06:22:55.003Z,0.00
2018-01-10T06:24:26.819Z,0.00
2018-01-10T06:25:58.636Z,0.00
2018-01-10T06:27:30.452Z,0.00
2018-01-10T06:29:02.268Z,0.00
2018-01-10T06:30:34.086Z,0.00
2018-01-10T06:32:05.902Z,0.00
2018-01-10T06:33:37.719Z,0.00
2018-01-10T06:35:09.538Z,0.00
2018-01-10T06:36:41.350Z,0.00
2018-01-10T06:38:13.167Z,0.00
2018-01-10T06:39:44.984Z,0.00
2018-01-10T06:41:16.800Z,0.00
2018-01-10T06:42:48.617Z,0.00
2018-01-10T06:44:20.433Z,0.00
2018-01-10T06:45:52.249Z,0.00
2018-01-10T06:47:24.066Z,0.00
2018-01-10T06:48:55.882Z,0.00
2018-01-10T06:50:27.698Z,0.00
2018-01-10T06:51:59.524Z,0.00
2018-01-10T06:53:31.330Z,0.00
2018-01-10T06:55:03.147Z,0.00
2018-01-10T06:56:34.963Z,0.00
2018-01-10T06:58:06.780Z,0.00
2018-01-10T06:59:38.597Z,0.00
2018-01-10T07:01:10.414Z,0.00
2018-01-10T07:02:42.230Z,0.00
2018-01-10T07:04:14.047Z,0.00
2018-01-10T07:05:45.864Z,0.00
2018-01-10T07:07:17.681Z,0.00
2018-01-10T07:08:49.498Z,0.00
2018-01-10T07:10:21.314Z,0.00
2018-01-10T07:11:53.131Z,0.00
2018-01-10T07:13:24.948Z,0.00
2018-01-10T07:14:56.768Z,0.00
2018-01-10T07:16:28.582Z,0.00
2018-01-10T07:18:00.399Z,0.00
2018-01-10T07:19:32.217Z,0.00
2018-01-10T07:21:04.033Z,0.00
2018-01-10T07:22:35.849Z,0.00
2018-01-10T07:24:07.665Z,0.00
2018-01-10T07:25:39.483Z,0.00
2018-01-10T07:27:11.303Z,0.00
2018-01-10T07:28:43.116Z,0.00
2018-01-10T07:30:14.933Z,0.00
2018-01-10T07:31:46.750Z,0.00
2018-01-10T07:33:18.566Z,0.00
2018-01-10T07:34:50.383Z,0.00
2018-01-10T07:36:22.199Z,0.00
2018-01-10T07:37:54.021Z,0.00
2018-01-10T07:39:25.832Z,0.00
2018-01-10T07:40:57.660Z,0.00
2018-01-10T07:42:29.522Z,0.00
2018-01-10T07:44:01.286Z,0.00
2018-01-10T07:45:33.103Z,0.00
2018-01-10T07:47:04.919Z,0.00
2018-01-10T07:48:36.736Z,0.00
2018-01-10T07:50:08.553Z,0.00
2018-01-10T07:51:40.370Z,0.00
2018-01-10T07:53:12.186Z,0.00
2018-01-10T07:54:44.004Z,0.00
2018-01-10T07:56:15.820Z,0.00
2018-01-10T07:57:47.637Z,0.00
2018-01-10T07:59:19.453Z,0.00
2018-01-10T08:00:51.270Z,0.00
2018-01-10T08:02:23.088Z,0.00
2018-01-10T08:03:54.903Z,0.00
2018-01-10T08:05:26.720Z,4.00
2018-01-10T08:06:58.538Z,0.00
2018-01-10T08:08:30.354Z,4.00
2018-01-10T08:10:02.169Z,8.00
2018-01-10T08:11:34.093Z,8.00
2018-01-10T08:13:05.804Z,12.00
2018-01-10T08:14:37.619Z,20.00
2018-01-10T08:16:09.467Z,32.00
2018-01-10T08:17:41.250Z,44.00
2018-01-10T08:19:13.091Z,64.00
2018-01-10T08:20:44.946Z,88.00
2018-01-10T08:22:16.697Z,124.00
2018-01-10T08:23:48.514Z,168.00
2018-01-10T08:25:20.351Z,208.00
2018-01-10T08:26:52.146Z,260.00
2018-01-10T08:28:24.028Z,320.00
2018-01-10T08:29:55.859Z,396.00
2018-01-10T08:31:27.595Z,500.00
2018-01-10T08:32:59.412Z,628.00
2018-01-10T08:34:31.259Z,804.00
2018-01-10T08:36:03.312Z,968.00
2018-01-10T08:37:34.890Z,1096.00
2018-01-10T08:39:06.676Z,1220.00
2018-01-10T08:40:39.139Z,1388.00
2018-01-10T08:42:11.148Z,1600.00
2018-01-10T08:43:42.462Z,1820.00
2018-01-10T08:45:13.944Z,2016.00
2018-01-10T08:46:45.834Z,2288.00
2018-01-10T08:48:17.583Z,2572.00
2018-01-10T08:49:49.401Z,2724.00
2018-01-10T08:51:22.129Z,3000.00
2018-01-10T08:52:53.088Z,3268.00
2018-01-10T08:54:25.200Z,3408.00
2018-01-10T08:55:56.699Z,3748.00
2018-01-10T08:57:28.907Z,4108.00
2018-01-10T08:59:00.287Z,4300.00
2018-01-10T09:00:32.380Z,4660.00
2018-01-10T09:02:04.361Z,5108.00
2018-01-10T09:03:35.924Z,5544.00
2018-01-10T09:05:07.922Z,6012.00
2018-01-10T09:06:39.440Z,6144.00
2018-01-10T09:08:11.203Z,6276.00
2018-01-10T09:09:43.027Z,6676.00
2018-01-10T09:11:14.828Z,6612.00
2018-01-10T09:12:46.631Z,6920.00
2018-01-10T09:14:18.465Z,7384.00
2018-01-10T09:15:50.322Z,7740.00
2018-01-10T09:17:22.112Z,8308.00
2018-01-10T09:18:53.943Z,8712.00
2018-01-10T09:20:25.850Z,9196.00
2018-01-10T09:21:57.640Z,9528.00
2018-01-10T09:23:29.588Z,9856.00
2018-01-10T09:25:01.526Z,10236.00
2018-01-10T09:26:33.012Z,10376.00
2018-01-10T09:28:04.825Z,11084.00
2018-01-10T09:29:36.712Z,11144.00
2018-01-10T09:31:08.640Z,11224.00
2018-01-10T09:32:40.326Z,11848.00
2018-01-10T09:34:12.279Z,12672.00
2018-01-10T09:35:44.544Z,13728.00
2018-01-10T09:37:15.803Z,11340.00
2018-01-10T09:38:47.554Z,14572.00
2018-01-10T09:40:20.210Z,15576.00
2018-01-10T09:41:51.346Z,16380.00
2018-01-10T09:43:23.026Z,16156.00
2018-01-10T09:44:55.358Z,15460.00
2018-01-10T09:46:27.759Z,15420.00
2018-01-10T09:48:00.226Z,17472.00
2018-01-10T09:49:30.531Z,18816.00
2018-01-10T09:51:02.379Z,19936.00
2018-01-10T09:52:34.153Z,20128.00
2018-01-10T09:54:06.555Z,20608.00
2018-01-10T09:55:38.408Z,21568.00
2018-01-10T09:57:09.717Z,21984.00
2018-01-10T09:58:41.542Z,21024.00
2018-01-10T10:00:13.217Z,20960.00
2018-01-10T10:01:45.020Z,20576.00
2018-01-10T10:03:17.694Z,19904.00
2018-01-10T10:04:49.490Z,21952.00
2018-01-10T10:06:21.792Z,25056.00
2018-01-10T10:07:55.177Z,28448.00
2018-01-10T10:09:24.442Z,26688.00
2018-01-10T10:10:56.475Z,28896.00
2018-01-10T10:12:28.839Z,31648.00
2018-01-10T10:14:01.051Z,33376.00
2018-01-10T10:15:31.283Z,37568.00
2018-01-10T10:17:03.837Z,36128.00
2018-01-10T10:18:37.686Z,35072.00
2018-01-10T10:20:08.166Z,30816.00
2018-01-10T10:21:40.945Z,28864.00
2018-01-10T10:23:10.466Z,26688.00
2018-01-10T10:24:44.602Z,29504.00
2018-01-10T10:26:15.212Z,29696.00
2018-01-10T10:27:45.862Z,30432.00
2018-01-10T10:29:17.652Z,30528.00
2018-01-10T10:30:49.513Z,29632.00
2018-01-10T10:32:21.305Z,28544.00
2018-01-10T10:33:53.160Z,26368.00
2018-01-10T10:35:25.010Z,25664.00
2018-01-10T10:36:56.785Z,26752.00
2018-01-10T10:38:28.738Z,27904.00
2018-01-10T10:40:00.414Z,27552.00
2018-01-10T10:41:32.231Z,27776.00
2018-01-10T10:43:04.108Z,29440.00
2018-01-10T10:44:36.083Z,30560.00
2018-01-10T10:46:07.716Z,30368.00
2018-01-10T10:47:39.547Z,30432.00
2018-01-10T10:49:11.385Z,29408.00
2018-01-10T10:50:43.252Z,31008.00
2018-01-10T10:52:14.985Z,32832.00
2018-01-10T10:53:46.808Z,32704.00
2018-01-10T10:55:18.634Z,32224.00
2018-01-10T10:56:50.504Z,35264.00
2018-01-10T10:58:22.275Z,35360.00
2018-01-10T10:59:55.770Z,35776.00
2018-01-10T11:01:26.977Z,35712.00
2018-01-10T11:02:58.781Z,35360.00
2018-01-10T11:04:30.546Z,33056.00
2018-01-10T11:06:02.334Z,31712.00
2018-01-10T11:07:34.806Z,33664.00
2018-01-10T11:09:05.623Z,35040.00
2018-01-10T11:10:37.593Z,35872.00
2018-01-10T11:12:10.268Z,37312.00
2018-01-10T11:13:42.551Z,37312.00
2018-01-10T11:15:14.827Z,37408.00
2018-01-10T11:16:45.921Z,36288.00
2018-01-10T11:18:17.017Z,36640.00
2018-01-10T11:19:48.751Z,35584.00
2018-01-10T11:21:19.607Z,36192.00
2018-01-10T11:22:51.431Z,34880.00
2018-01-10T11:24:23.252Z,34528.00
2018-01-10T11:25:55.075Z,34176.00
2018-01-10T11:27:26.898Z,33568.00
2018-01-10T11:28:58.720Z,34848.00
2018-01-10T11:30:30.546Z,34688.00
2018-01-10T11:32:02.366Z,35200.00
2018-01-10T11:33:34.188Z,35200.00
2018-01-10T11:35:06.011Z,34176.00
2018-01-10T11:36:37.833Z,34720.00
2018-01-10T11:38:09.654Z,35328.00
2018-01-10T11:39:41.475Z,34880.00
2018-01-10T11:41:13.303Z,36096.00
2018-01-10T11:42:45.120Z,36256.00
2018-01-10T11:44:16.942Z,35616.00
2018-01-10T11:45:48.765Z,35648.00
2018-01-10T11:47:20.586Z,36800.00
2018-01-10T11:48:52.409Z,37920.00
2018-01-10T11:50:24.231Z,38528.00
2018-01-10T11:51:56.053Z,41888.00
2018-01-10T11:54:59.701Z,46112.00
2018-01-10T11:56:31.521Z,50592.00
2018-01-10T11:58:03.412Z,60000.00
2018-01-10T11:59:36.343Z,60224.00
2018-01-10T12:01:07.677Z,61952.00
2018-01-10T12:02:39.911Z,66272.00
2018-01-10T12:04:11.801Z,67072.00
2018-01-10T12:05:43.310Z,66752.00
2018-01-10T12:07:15.488Z,70784.00
2018-01-10T12:08:46.736Z,73376.00
2018-01-10T12:10:18.772Z,73120.00
2018-01-10T12:11:50.581Z,74048.00
2018-01-10T12:13:22.373Z,73568.00
2018-01-10T12:14:55.187Z,78080.00
2018-01-10T12:16:26.153Z,85952.00
2018-01-10T12:17:58.012Z,86496.00
2018-01-10T12:19:29.857Z,90816.00
2018-01-10T12:21:01.103Z,94464.00
2018-01-10T12:22:33.251Z,81760.00
2018-01-10T12:24:05.596Z,89568.00
2018-01-10T12:25:37.018Z,82752.00
2018-01-10T12:27:08.975Z,78208.00
2018-01-10T12:28:40.801Z,75808.00
2018-01-10T12:30:12.198Z,64800.00
2018-01-10T12:31:44.653Z,64480.00
2018-01-10T12:33:15.924Z,63392.00
2018-01-10T12:34:48.259Z,66176.00
2018-01-10T12:36:20.022Z,73664.00
2018-01-10T12:37:51.492Z,70272.00
2018-01-10T12:39:23.035Z,70848.00
2018-01-10T12:40:55.047Z,64768.00
2018-01-10T12:42:26.990Z,72416.00
2018-01-10T12:43:58.722Z,93600.00
2018-01-10T12:45:30.911Z,88480.00
2018-01-10T12:47:02.594Z,82528.00
2018-01-10T12:48:35.993Z,88512.00
2018-01-10T12:50:06.846Z,83104.00
2018-01-10T12:51:39.050Z,80608.00
2018-01-10T12:53:10.833Z,78208.00
2018-01-10T12:54:43.307Z,76864.00
2018-01-10T12:56:13.906Z,72736.00
2018-01-10T12:57:45.642Z,71808.00
2018-01-10T12:59:17.425Z,75648.00
2018-01-10T13:00:49.162Z,73120.00
2018-01-10T13:02:21.017Z,66880.00
2018-01-10T13:03:53.065Z,75200.00
2018-01-10T13:05:24.509Z,77024.00
2018-01-10T13:06:56.721Z,79712.00
2018-01-10T13:08:28.362Z,89600.00
2018-01-10T13:09:59.802Z,95040.00
2018-01-10T13:11:30.949Z,98400.00
2018-01-10T13:13:02.759Z,101184.00
2018-01-10T13:14:34.585Z,98528.00
2018-01-10T13:16:06.413Z,92160.00
2018-01-10T13:17:38.237Z,96000.00
2018-01-10T13:19:10.075Z,97536.00
2018-01-10T13:20:42.181Z,98240.00
2018-01-10T13:22:13.719Z,91808.00
2018-01-10T13:23:45.546Z,91808.00
2018-01-10T13:25:17.388Z,95744.00
2018-01-10T13:26:49.200Z,91872.00
2018-01-10T13:28:21.042Z,92288.00
2018-01-10T13:29:52.856Z,94496.00
2018-01-10T13:31:24.721Z,89120.00
2018-01-10T13:32:56.581Z,88832.00
2018-01-10T13:34:28.341Z,89440.00
2018-01-10T13:36:01.044Z,95648.00
2018-01-10T13:37:33.727Z,95456.00
2018-01-10T13:39:05.352Z,97152.00
2018-01-10T13:40:35.653Z,99392.00
2018-01-10T13:42:07.482Z,94752.00
2018-01-10T13:43:39.357Z,91200.00
2018-01-10T13:45:11.142Z,87008.00
2018-01-10T13:46:42.970Z,76000.00
2018-01-10T13:48:14.799Z,84640.00
2018-01-10T13:49:46.762Z,82144.00
2018-01-10T13:51:18.458Z,83680.00
2018-01-10T13:52:50.839Z,78048.00
2018-01-10T13:54:22.215Z,69568.00
2018-01-10T13:55:53.979Z,83232.00
2018-01-10T13:57:25.773Z,83648.00
2018-01-10T13:58:57.721Z,67904.00
2018-01-10T14:00:29.560Z,63168.00
2018-01-10T14:02:01.352Z,57632.00
2018-01-10T14:03:33.105Z,55744.00
2018-01-10T14:05:04.918Z,52448.00
2018-01-10T14:06:36.745Z,55040.00
2018-01-10T14:08:08.574Z,55616.00
2018-01-10T14:09:40.421Z,53408.00
2018-01-10T14:11:12.229Z,55360.00
2018-01-10T14:12:44.058Z,53152.00
2018-01-10T14:14:15.895Z,52320.00
2018-01-10T14:15:47.716Z,47744.00
2018-01-10T14:17:19.545Z,48032.00
2018-01-10T14:18:51.372Z,47840.00
2018-01-10T14:20:23.200Z,53376.00
2018-01-10T14:21:55.029Z,61664.00
2018-01-10T14:23:27.896Z,62560.00
2018-01-10T14:25:00.509Z,64800.00
2018-01-10T14:26:31.499Z,62432.00
2018-01-10T14:28:04.456Z,62752.00
2018-01-10T14:29:35.819Z,62464.00
2018-01-10T14:31:07.804Z,62496.00
2018-01-10T14:32:38.665Z,63648.00
2018-01-10T14:34:10.406Z,63552.00
2018-01-10T14:35:42.286Z,66976.00
2018-01-10T14:37:14.213Z,66368.00
2018-01-10T14:38:45.150Z,64864.00
2018-01-10T14:40:18.727Z,65312.00
2018-01-10T14:41:50.472Z,84288.00
2018-01-10T14:43:22.287Z,78720.00
2018-01-10T14:44:53.763Z,83328.00
2018-01-10T14:46:25.188Z,80000.00
2018-01-10T14:47:57.477Z,84576.00
2018-01-10T14:49:28.837Z,84064.00
2018-01-10T14:51:00.698Z,96896.00
2018-01-10T14:52:33.173Z,103616.00
2018-01-10T14:54:04.638Z,98528.00
2018-01-10T14:55:36.420Z,95968.00
2018-01-10T14:57:08.858Z,105856.00
2018-01-10T14:58:40.879Z,95232.00
2018-01-10T15:00:12.258Z,92224.00
2018-01-10T15:01:43.705Z,92672.00
2018-01-10T15:03:15.302Z,91776.00
2018-01-10T15:04:48.829Z,94400.00
2018-01-10T15:06:19.815Z,90688.00
2018-01-10T15:07:50.908Z,79392.00
2018-01-10T15:09:24.352Z,82144.00
2018-01-10T15:10:54.672Z,80224.00
2018-01-10T15:12:26.306Z,96096.00
2018-01-10T15:13:57.989Z,94912.00
2018-01-10T15:15:30.007Z,90272.00
2018-01-10T15:17:03.028Z,88736.00
2018-01-10T15:18:34.023Z,83584.00
2018-01-10T15:20:05.221Z,75584.00
2018-01-10T15:21:37.048Z,67168.00
2018-01-10T15:23:09.227Z,54400.00
2018-01-10T15:24:41.572Z,48448.00
2018-01-10T15:26:12.851Z,44064.00
2018-01-10T15:27:44.115Z,39488.00
2018-01-10T15:29:15.956Z,39968.00
2018-01-10T15:30:48.246Z,41344.00
2018-01-10T15:32:19.953Z,43072.00
2018-01-10T15:33:52.267Z,41152.00
2018-01-10T15:35:23.528Z,39776.00
2018-01-10T15:36:55.977Z,40704.00
2018-01-10T15:38:27.657Z,42624.00
2018-01-10T15:39:59.086Z,71712.00
2018-01-10T15:41:31.228Z,69824.00
2018-01-10T15:43:02.748Z,63104.00
2018-01-10T15:44:34.468Z,95616.00
2018-01-10T15:46:07.154Z,102528.00
2018-01-10T15:47:39.516Z,93216.00
2018-01-10T15:49:10.330Z,107808.00
2018-01-10T15:50:42.398Z,113312.00
2018-01-10T15:52:13.940Z,118848.00
2018-01-10T15:53:45.667Z,107136.00
2018-01-10T15:55:17.317Z,103616.00
2018-01-10T15:56:49.039Z,85856.00
2018-01-10T15:58:21.969Z,100096.00
2018-01-10T15:59:54.253Z,102496.00
2018-01-10T16:01:25.262Z,110624.00
2018-01-10T16:02:56.429Z,125152.00
2018-01-10T16:04:27.844Z,128000.00
2018-01-10T16:05:59.881Z,119872.00
2018-01-10T16:07:33.319Z,120160.00
2018-01-10T16:09:04.350Z,122560.00
2018-01-10T16:10:36.022Z,135392.00
2018-01-10T16:12:07.537Z,127072.00
2018-01-10T16:13:39.735Z,118624.00
2018-01-10T16:15:11.150Z,109280.00
2018-01-10T16:16:43.343Z,128192.00
2018-01-10T16:18:15.107Z,112512.00
2018-01-10T16:19:46.372Z,48512.00
2018-01-10T16:21:19.144Z,114496.00
2018-01-10T16:22:49.906Z,124032.00
2018-01-10T16:24:22.328Z,126432.00
2018-01-10T16:25:54.242Z,108800.00
2018-01-10T16:27:25.859Z,83648.00
2018-01-10T16:28:57.482Z,82656.00
2018-01-10T16:30:30.106Z,91840.00
2018-01-10T16:32:01.511Z,124736.00
2018-01-10T16:33:33.521Z,123584.00
2018-01-10T16:35:05.133Z,125760.00
2018-01-10T16:36:37.001Z,56256.00
2018-01-10T16:38:08.777Z,126368.00
2018-01-10T16:39:41.015Z,117408.00
2018-01-10T16:41:12.347Z,106784.00
2018-01-10T16:42:44.036Z,52832.00
2018-01-10T16:44:16.495Z,47360.00
2018-01-10T16:45:47.774Z,44608.00
2018-01-10T16:47:19.268Z,43680.00
2018-01-10T16:48:51.422Z,46368.00
2018-01-10T16:50:22.827Z,49792.00
2018-01-10T16:51:55.087Z,58432.00
2018-01-10T16:53:27.102Z,93728.00
2018-01-10T16:54:58.348Z,106240.00
2018-01-10T16:56:29.935Z,108160.00
2018-01-10T16:58:03.130Z,113696.00
2018-01-10T16:59:34.604Z,102336.00
2018-01-10T17:01:05.360Z,55232.00
2018-01-10T17:02:38.358Z,35744.00
2018-01-10T17:04:10.505Z,33408.00
2018-01-10T17:05:41.985Z,28704.00
2018-01-10T17:07:13.496Z,29152.00
2018-01-10T17:08:45.567Z,30528.00
2018-01-10T17:10:17.343Z,28864.00
2018-01-10T17:11:49.017Z,25312.00
2018-01-10T17:13:21.075Z,24192.00
2018-01-10T17:14:52.468Z,24192.00
2018-01-10T17:16:25.350Z,23808.00
2018-01-10T17:17:56.228Z,24640.00
2018-01-10T17:19:28.352Z,31776.00
2018-01-10T17:20:59.994Z,34848.00
2018-01-10T17:22:32.039Z,47744.00
2018-01-10T17:24:03.584Z,44832.00
2018-01-10T17:25:35.618Z,23392.00
2018-01-10T17:27:06.927Z,12700.00
2018-01-10T17:28:39.190Z,10396.00
2018-01-10T17:30:10.728Z,10680.00
2018-01-10T17:31:42.880Z,11372.00
2018-01-10T17:33:14.705Z,11720.00
2018-01-10T17:34:46.942Z,12668.00
2018-01-10T17:36:18.177Z,14868.00
2018-01-10T17:37:50.082Z,19520.00
2018-01-10T17:39:22.035Z,30688.00
2018-01-10T17:40:54.117Z,32736.00
2018-01-10T17:42:25.785Z,30304.00
2018-01-10T17:43:57.579Z,30560.00
2018-01-10T17:45:29.195Z,32640.00
2018-01-10T17:47:01.545Z,37536.00
2018-01-10T17:48:32.979Z,45120.00
2018-01-10T17:50:04.545Z,70240.00
2018-01-10T17:51:36.045Z,128032.00
2018-01-10T17:53:08.271Z,135296.00
2018-01-10T17:54:39.729Z,128160.00
2018-01-10T17:56:12.517Z,84704.00
2018-01-10T17:57:44.103Z,59616.00
2018-01-10T17:59:15.673Z,29408.00
2018-01-10T18:00:47.799Z,25568.00
2018-01-10T18:02:18.775Z,20736.00
2018-01-10T18:03:51.571Z,16112.00
2018-01-10T18:05:22.907Z,11832.00
2018-01-10T18:06:53.843Z,9524.00
2018-01-10T18:08:25.667Z,8536.00
2018-01-10T18:09:57.488Z,8636.00
2018-01-10T18:11:30.160Z,10224.00
2018-01-10T18:13:02.337Z,12220.00
2018-01-10T18:14:33.320Z,12408.00
2018-01-10T18:16:04.788Z,10772.00
2018-01-10T18:17:37.366Z,9072.00
2018-01-10T18:19:08.445Z,8100.00
2018-01-10T18:20:40.344Z,7388.00
2018-01-10T18:22:12.065Z,6616.00
2018-01-10T18:23:43.887Z,5076.00
2018-01-10T18:25:15.709Z,3096.00
2018-01-10T18:26:47.528Z,2040.00
2018-01-10T18:28:20.905Z,1808.00
2018-01-10T18:29:51.171Z,1840.00
2018-01-10T18:31:22.992Z,2000.00
2018-01-10T18:32:54.813Z,2252.00
2018-01-10T18:34:26.634Z,2472.00
2018-01-10T18:35:58.544Z,2628.00
2018-01-10T18:37:31.297Z,2672.00
2018-01-10T18:39:02.093Z,2832.00
2018-01-10T18:40:35.255Z,2808.00
2018-01-10T18:42:05.885Z,2624.00
2018-01-10T18:43:37.550Z,2316.00
2018-01-10T18:45:10.882Z,2280.00
2018-01-10T18:46:41.320Z,2332.00
2018-01-10T18:48:13.008Z,2360.00
2018-01-10T18:49:44.837Z,2304.00
2018-01-10T18:51:16.641Z,2268.00
2018-01-10T18:52:49.933Z,2248.00
2018-01-10T18:54:20.276Z,2204.00
2018-01-10T18:55:52.095Z,2232.00
2018-01-10T18:57:23.913Z,2284.00
2018-01-10T18:58:56.994Z,2320.00
2018-01-10T19:00:28.766Z,2372.00